createdAt,value
2019-05-26T00:03:11.486Z,12.00
2019-05-26T00:05:41.521Z,11.90
2019-05-26T00:08:11.742Z,11.90
2019-05-26T00:10:41.881Z,11.90
2019-05-26T00:13:12.102Z,11.80
2019-05-26T00:15:42.050Z,11.80
2019-05-26T00:18:12.211Z,11.80
2019-05-26T00:20:42.242Z,11.80
2019-05-26T00:23:12.348Z,11.70
2019-05-26T00:25:42.403Z,11.70
2019-05-26T00:28:12.622Z,11.70
2019-05-26T00:30:42.583Z,11.70
2019-05-26T00:33:12.811Z,11.70
2019-05-26T00:35:42.942Z,11.70
2019-05-26T00:38:32.133Z,11.70
2019-05-26T00:41:03.893Z,11.70
2019-05-26T00:43:34.064Z,11.70
2019-05-26T00:46:04.121Z,11.60
2019-05-26T00:48:34.367Z,11.70
2019-05-26T00:51:04.402Z,11.70
2019-05-26T00:53:34.623Z,11.40
2019-05-26T00:56:04.643Z,11.40
2019-05-26T00:58:34.644Z,11.40
2019-05-26T01:01:05.069Z,11.50
2019-05-26T01:03:35.068Z,11.60
2019-05-26T01:06:05.271Z,11.50
2019-05-26T01:08:35.352Z,11.30
2019-05-26T01:11:05.522Z,11.20
2019-05-26T01:13:35.543Z,11.30
2019-05-26T01:16:05.722Z,11.30
2019-05-26T01:18:35.862Z,11.30
2019-05-26T01:21:05.906Z,11.10
2019-05-26T01:23:36.081Z,11.10
2019-05-26T01:26:06.027Z,10.90
2019-05-26T01:28:36.103Z,11.00
2019-05-26T01:31:06.346Z,11.00
2019-05-26T01:33:36.402Z,11.00
2019-05-26T01:36:07.703Z,11.10
2019-05-26T01:45:20.163Z,11.20
2019-05-26T01:47:50.282Z,11.30
2019-05-26T01:50:20.242Z,11.10
2019-05-26T01:52:50.321Z,11.20
2019-05-26T01:55:20.501Z,11.10
2019-05-26T01:57:50.562Z,11.20
2019-05-26T02:00:20.943Z,11.20
2019-05-26T02:02:50.942Z,11.20
2019-05-26T02:05:21.114Z,11.10
2019-05-26T02:07:51.202Z,11.20
2019-05-26T02:10:21.347Z,11.20
2019-05-26T02:12:51.564Z,11.00
2019-05-26T02:15:21.982Z,10.90
2019-05-26T02:17:52.103Z,11.00
2019-05-26T02:20:22.143Z,11.10
2019-05-26T02:22:52.276Z,10.90
2019-05-26T02:25:22.743Z,11.00
2019-05-26T02:27:52.847Z,10.80
2019-05-26T02:30:23.464Z,10.80
2019-05-26T02:32:53.528Z,10.90
2019-05-26T02:35:24.847Z,10.90
2019-05-26T02:37:54.910Z,10.80
2019-05-26T02:40:26.687Z,10.70
2019-05-26T02:42:57.946Z,10.60
2019-05-26T02:45:28.183Z,10.70
2019-05-26T02:47:58.203Z,10.80
2019-05-26T02:50:28.290Z,10.70
2019-05-26T02:52:58.390Z,10.70
2019-05-26T02:55:28.523Z,10.70
2019-05-26T02:57:58.643Z,10.80
2019-05-26T03:00:46.107Z,10.80
2019-05-26T03:03:17.043Z,10.70
2019-05-26T03:05:47.165Z,10.50
2019-05-26T03:08:17.584Z,10.60
2019-05-26T03:10:50.613Z,10.50
2019-05-26T03:13:20.682Z,10.50
2019-05-26T03:15:50.833Z,10.60
2019-05-26T03:18:20.964Z,10.50
2019-05-26T03:20:51.002Z,10.50
2019-05-26T03:23:21.128Z,10.40
2019-05-26T03:25:51.188Z,10.50
2019-05-26T03:28:21.322Z,10.50
2019-05-26T03:30:52.414Z,10.50
2019-05-26T03:33:22.448Z,10.60
2019-05-26T03:35:52.410Z,10.70
2019-05-26T03:38:41.366Z,10.50
2019-05-26T03:41:11.412Z,10.50
2019-05-26T03:43:41.643Z,10.50
2019-05-26T03:46:19.456Z,10.50
2019-05-26T03:48:49.817Z,10.60
2019-05-26T03:51:19.957Z,10.50
2019-05-26T03:53:50.003Z,10.60
2019-05-26T03:56:20.023Z,10.60
2019-05-26T03:58:50.106Z,10.70
2019-05-26T04:01:20.223Z,10.70
2019-05-26T04:03:50.188Z,10.60
2019-05-26T04:06:20.280Z,10.60
2019-05-26T04:08:50.323Z,10.60
2019-05-26T04:11:20.432Z,10.70
2019-05-26T04:13:50.533Z,10.80
2019-05-26T04:16:20.685Z,10.70
2019-05-26T04:18:50.797Z,10.80
2019-05-26T04:21:20.809Z,10.80
2019-05-26T04:23:50.803Z,10.70
2019-05-26T04:26:20.823Z,10.70
2019-05-26T04:28:50.896Z,10.70
2019-05-26T04:31:20.903Z,10.80
2019-05-26T04:33:51.034Z,10.90
2019-05-26T04:36:21.084Z,10.90
2019-05-26T04:38:51.182Z,10.90
2019-05-26T04:41:21.234Z,10.80
2019-05-26T04:43:52.910Z,10.90
2019-05-26T04:46:44.411Z,10.90
2019-05-26T04:49:10.469Z,10.80
2019-05-26T04:51:41.503Z,10.90
2019-05-26T04:54:11.563Z,11.00
2019-05-26T04:56:41.528Z,11.00
2019-05-26T04:59:11.708Z,11.10
2019-05-26T05:05:15.627Z,11.10
2019-05-26T05:07:45.663Z,11.00
2019-05-26T05:10:15.833Z,11.00
2019-05-26T05:12:46.187Z,11.10
2019-05-26T05:15:16.902Z,11.10
2019-05-26T05:17:46.841Z,11.00
2019-05-26T05:20:17.068Z,11.00
2019-05-26T05:22:47.167Z,11.00
2019-05-26T05:25:17.269Z,11.10
2019-05-26T05:27:47.721Z,11.10
2019-05-26T05:30:19.662Z,11.20
2019-05-26T05:32:49.702Z,11.20
2019-05-26T05:35:20.342Z,11.20
2019-05-26T05:37:50.401Z,11.10
2019-05-26T05:40:20.849Z,11.10
2019-05-26T05:42:50.982Z,11.20
2019-05-26T05:45:21.288Z,11.20
2019-05-26T05:47:51.448Z,11.20
2019-05-26T05:50:55.283Z,11.20
2019-05-26T05:53:25.404Z,11.30
2019-05-26T05:55:55.446Z,11.30
2019-05-26T05:58:25.550Z,11.30
2019-05-26T06:05:42.687Z,11.40
2019-05-26T06:12:35.933Z,11.50
2019-05-26T06:18:32.781Z,11.40
2019-05-26T06:21:08.951Z,11.40
2019-05-26T06:23:46.494Z,11.40
2019-05-26T06:26:40.494Z,11.40
2019-05-26T06:29:10.870Z,11.40
2019-05-26T06:31:42.072Z,11.40
2019-05-26T06:34:14.792Z,11.30
2019-05-26T06:36:45.540Z,11.30
2019-05-26T07:00:21.755Z,11.50
2019-05-26T07:13:24.462Z,11.40
2019-05-26T07:19:07.628Z,11.40
2019-05-26T07:21:37.859Z,11.40
2019-05-26T07:24:08.431Z,11.40
2019-05-26T07:26:38.737Z,11.40
2019-05-26T07:29:09.238Z,11.40
2019-05-26T07:31:39.798Z,11.40
2019-05-26T07:34:10.779Z,11.30
2019-05-26T07:36:41.217Z,11.40
2019-05-26T07:39:11.699Z,11.40
2019-05-26T07:41:42.050Z,11.40
2019-05-26T07:44:14.642Z,11.40
2019-05-26T07:46:45.994Z,11.30
2019-05-26T07:49:18.533Z,11.30
2019-05-26T07:51:49.872Z,11.30
2019-05-26T07:54:25.726Z,11.30
2019-05-26T07:56:52.073Z,11.30
2019-05-26T07:59:22.422Z,11.30
2019-05-26T08:01:53.172Z,11.30
2019-05-26T08:04:23.395Z,11.40
2019-05-26T08:06:53.894Z,11.20
2019-05-26T08:09:24.067Z,11.20
2019-05-26T08:11:54.139Z,11.30
2019-05-26T08:14:24.814Z,11.30
2019-05-26T08:16:55.162Z,11.30
2019-05-26T08:19:25.375Z,11.20
2019-05-26T08:28:40.642Z,11.30
2019-05-26T08:31:13.346Z,11.20
2019-05-26T08:37:00.753Z,11.30
2019-05-26T08:39:47.989Z,11.30
2019-05-26T08:42:26.347Z,11.40
2019-05-26T08:44:45.025Z,11.40
2019-05-26T08:47:17.779Z,11.40
2019-05-26T08:49:48.573Z,11.40
2019-05-26T08:52:19.219Z,11.40
2019-05-26T08:54:50.009Z,11.40
2019-05-26T08:57:21.446Z,11.50
2019-05-26T08:59:51.650Z,11.50
2019-05-26T09:02:21.975Z,11.40
2019-05-26T09:04:52.520Z,11.50
2019-05-26T09:07:24.057Z,11.50
2019-05-26T09:09:54.251Z,11.50
2019-05-26T09:12:26.271Z,11.50
2019-05-26T09:14:56.542Z,11.60
2019-05-26T09:17:26.800Z,11.70
2019-05-26T09:19:57.051Z,11.70
2019-05-26T09:22:27.877Z,11.70
2019-05-26T09:24:58.222Z,11.60
2019-05-26T09:27:28.350Z,11.70
2019-05-26T09:29:59.495Z,11.70
2019-05-26T09:32:30.117Z,11.80
2019-05-26T09:35:00.442Z,11.80
2019-05-26T09:37:32.070Z,12.00
2019-05-26T09:40:02.332Z,12.10
2019-05-26T09:42:32.420Z,12.10
2019-05-26T09:45:02.578Z,12.20
2019-05-26T09:47:32.850Z,12.20
2019-05-26T09:50:03.126Z,12.20
2019-05-26T09:52:33.792Z,12.20
2019-05-26T09:55:05.103Z,12.20
2019-05-26T09:57:36.830Z,12.20
2019-05-26T10:00:08.441Z,12.30
2019-05-26T10:02:38.925Z,12.50
2019-05-26T10:05:09.883Z,12.70
2019-05-26T10:07:40.610Z,12.90
2019-05-26T10:10:12.460Z,13.00
2019-05-26T10:12:43.266Z,13.00
2019-05-26T10:15:14.073Z,13.10
2019-05-26T10:17:44.989Z,13.20
2019-05-26T10:20:16.328Z,13.30
2019-05-26T10:22:49.421Z,13.30
2019-05-26T10:25:20.803Z,13.40
2019-05-26T10:27:55.160Z,13.40
2019-05-26T10:36:43.035Z,13.20
2019-05-26T10:39:13.803Z,13.00
2019-05-26T10:41:55.552Z,12.90
2019-05-26T10:50:46.156Z,12.80
2019-05-26T10:53:16.249Z,12.80
2019-05-26T10:56:26.795Z,12.80
2019-05-26T10:58:58.490Z,12.90
2019-05-26T11:01:28.611Z,13.00
2019-05-26T11:07:38.503Z,13.10
2019-05-26T11:10:33.471Z,13.20
2019-05-26T11:13:13.257Z,13.20
2019-05-26T11:15:43.412Z,13.10
2019-05-26T11:18:51.349Z,13.00
2019-05-26T11:21:23.202Z,13.00
2019-05-26T11:27:09.184Z,12.90
2019-05-26T11:29:35.474Z,12.90
2019-05-26T11:32:05.939Z,12.90
2019-05-26T11:34:35.942Z,13.00
2019-05-26T11:37:06.338Z,13.00
2019-05-26T11:39:36.348Z,13.00
2019-05-26T11:42:16.164Z,13.10
2019-05-26T11:45:03.238Z,13.00
2019-05-26T11:47:33.612Z,13.00
2019-05-26T11:53:30.109Z,13.00
2019-05-26T11:56:26.361Z,13.00
2019-05-26T11:59:29.722Z,12.90
2019-05-26T12:02:00.039Z,12.80
2019-05-26T12:04:50.999Z,12.80
2019-05-26T12:07:21.170Z,12.80
2019-05-26T12:09:51.125Z,12.70
2019-05-26T12:12:21.350Z,12.70
2019-05-26T12:14:51.440Z,12.70
2019-05-26T12:33:26.811Z,12.90
2019-05-26T12:35:56.784Z,12.80
2019-05-26T12:48:07.509Z,12.70
2019-05-26T12:50:37.854Z,12.00
2019-05-26T12:53:08.322Z,12.00
2019-05-26T12:55:38.467Z,12.00
2019-05-26T12:58:08.796Z,11.60
2019-05-26T13:00:48.761Z,11.50
2019-05-26T13:03:10.632Z,11.40
2019-05-26T13:05:40.672Z,11.30
2019-05-26T13:15:06.674Z,11.30
2019-05-26T13:17:37.864Z,11.20
2019-05-26T13:20:09.332Z,11.10
2019-05-26T13:23:08.888Z,11.20
2019-05-26T13:25:39.114Z,11.30
2019-05-26T13:28:11.806Z,11.20
2019-05-26T13:30:46.251Z,11.20
2019-05-26T13:33:16.381Z,11.30
2019-05-26T13:35:59.837Z,11.30
2019-05-26T13:38:29.910Z,11.40
2019-05-26T13:41:00.149Z,11.60
2019-05-26T13:43:30.209Z,11.80
2019-05-26T13:46:37.617Z,11.70
2019-05-26T13:49:07.629Z,11.80
2019-05-26T13:51:39.072Z,11.90
2019-05-26T13:54:15.571Z,11.80
2019-05-26T13:57:50.489Z,11.80
2019-05-26T13:59:34.564Z,11.80
2019-05-26T14:02:04.773Z,11.80
2019-05-26T14:04:34.771Z,11.70
2019-05-26T14:07:05.135Z,11.70
2019-05-26T14:09:35.495Z,11.70
2019-05-26T14:12:06.398Z,11.70
2019-05-26T14:14:43.364Z,11.50
2019-05-26T14:20:35.878Z,11.50
2019-05-26T14:23:06.964Z,11.50
2019-05-26T14:25:39.144Z,11.40
2019-05-26T14:31:21.847Z,11.40
2019-05-26T14:33:52.043Z,11.40
2019-05-26T14:36:22.146Z,11.30
2019-05-26T14:38:52.205Z,11.30
2019-05-26T14:41:22.334Z,11.30
2019-05-26T14:43:52.387Z,11.30
2019-05-26T14:46:22.586Z,11.20
2019-05-26T14:48:52.633Z,11.20
2019-05-26T14:51:22.727Z,11.20
2019-05-26T14:53:52.855Z,11.20
2019-05-26T14:56:23.077Z,11.30
2019-05-26T14:58:53.205Z,11.30
2019-05-26T15:01:23.242Z,11.30
2019-05-26T15:03:53.440Z,11.30
2019-05-26T15:06:23.740Z,11.30
2019-05-26T15:08:55.949Z,11.30
2019-05-26T15:11:26.007Z,11.40
2019-05-26T15:17:35.109Z,11.40
2019-05-26T15:20:06.736Z,11.40
2019-05-26T15:22:37.782Z,11.50
2019-05-26T15:25:08.668Z,11.40
2019-05-26T15:27:38.837Z,11.40
2019-05-26T15:30:21.021Z,11.50
2019-05-26T15:32:51.055Z,11.40
2019-05-26T16:12:13.510Z,11.30
2019-05-26T16:14:43.657Z,11.20
2019-05-26T16:17:26.412Z,11.20
2019-05-26T16:20:15.026Z,11.20
2019-05-26T16:30:07.909Z,11.10
2019-05-26T16:32:38.171Z,11.00
2019-05-26T16:35:09.336Z,11.00
2019-05-26T16:37:52.083Z,11.00
2019-05-26T16:40:23.326Z,11.00
2019-05-26T16:42:55.763Z,11.00
2019-05-26T16:45:25.934Z,11.00
2019-05-26T16:47:56.021Z,11.00
2019-05-26T16:50:26.045Z,10.90
2019-05-26T16:53:08.835Z,10.90
2019-05-26T16:55:38.900Z,10.90
2019-05-26T16:58:08.962Z,10.90
2019-05-26T17:00:39.205Z,10.90
2019-05-26T17:03:09.335Z,10.90
2019-05-26T17:05:40.408Z,10.90
2019-05-26T17:08:11.638Z,10.90
2019-05-26T17:10:42.057Z,10.90
2019-05-26T17:13:12.094Z,10.80
2019-05-26T17:15:42.324Z,10.90
2019-05-26T17:18:24.584Z,10.90
2019-05-26T17:20:54.667Z,10.80
2019-05-26T17:23:24.646Z,10.80
2019-05-26T17:36:36.068Z,10.70
2019-05-26T17:39:08.783Z,10.80
2019-05-26T17:41:38.900Z,10.70
2019-05-26T18:43:22.765Z,9.80
2019-05-26T18:45:53.006Z,9.90
2019-05-26T18:48:23.456Z,9.90
2019-05-26T18:50:53.601Z,9.90
2019-05-26T18:53:23.847Z,9.60
2019-05-26T18:55:54.091Z,9.70
2019-05-26T18:58:24.232Z,9.80
2019-05-26T19:00:54.322Z,9.80
2019-05-26T19:03:24.843Z,9.80
2019-05-26T19:05:54.988Z,9.80
2019-05-26T19:08:25.271Z,9.70
2019-05-26T19:10:55.417Z,9.80
2019-05-26T19:13:25.604Z,9.90
2019-05-26T19:15:55.778Z,10.00
2019-05-26T19:18:26.098Z,9.80
2019-05-26T19:21:17.416Z,9.80
2019-05-26T19:23:48.408Z,9.90
2019-05-26T19:26:18.489Z,9.90
2019-05-26T19:28:49.067Z,9.80
2019-05-26T19:31:22.067Z,9.80
2019-05-26T19:33:52.305Z,9.80
2019-05-26T19:36:22.609Z,9.70
2019-05-26T19:38:52.949Z,9.60
2019-05-26T19:41:23.173Z,9.60
2019-05-26T19:43:54.240Z,9.70
2019-05-26T19:46:24.224Z,9.70
2019-05-26T19:48:55.337Z,9.70
2019-05-26T19:51:26.570Z,9.70
2019-05-26T19:53:56.753Z,9.70
2019-05-26T19:56:27.579Z,9.60
2019-05-26T19:58:57.857Z,9.50
2019-05-26T20:01:28.861Z,9.50
2019-05-26T20:03:59.632Z,9.50
2019-05-26T20:06:30.060Z,9.40
2019-05-26T20:09:00.315Z,9.40
2019-05-26T20:11:31.844Z,9.40
2019-05-26T20:14:02.122Z,9.40
2019-05-26T20:16:32.393Z,9.40
2019-05-26T20:19:02.996Z,9.50
2019-05-26T20:21:33.247Z,9.50
2019-05-26T20:24:03.823Z,9.40
2019-05-26T20:26:34.180Z,9.40
2019-05-26T20:32:34.400Z,9.50
2019-05-26T20:35:09.612Z,9.60
2019-05-26T20:37:39.728Z,9.60
2019-05-26T20:40:14.852Z,9.60
2019-05-26T20:49:17.656Z,9.60
2019-05-26T20:52:27.287Z,9.50
2019-05-26T20:55:45.457Z,9.50
2019-05-26T21:02:01.259Z,9.50
2019-05-26T21:04:31.219Z,9.40
2019-05-26T21:07:01.339Z,9.50
2019-05-26T21:09:31.460Z,9.60
2019-05-26T21:12:01.674Z,9.50
2019-05-26T21:18:16.676Z,9.60
2019-05-26T21:20:46.764Z,9.50
2019-05-26T21:23:16.938Z,9.60
2019-05-26T21:25:46.985Z,9.50
2019-05-26T21:28:17.195Z,9.40
2019-05-26T21:34:31.177Z,9.50
2019-05-26T21:37:01.149Z,9.50
2019-05-26T21:39:31.251Z,9.50
2019-05-26T21:42:01.265Z,9.40
2019-05-26T21:44:31.291Z,9.50
2019-05-26T21:47:01.353Z,9.50
2019-05-26T21:49:31.429Z,9.50
2019-05-26T21:52:01.384Z,9.50
2019-05-26T22:17:27.018Z,9.50
2019-05-26T22:19:57.201Z,9.60
2019-05-26T22:22:27.467Z,9.50
2019-05-26T22:24:57.589Z,9.50
2019-05-26T22:27:27.632Z,9.60
2019-05-26T22:29:57.593Z,9.60
2019-05-26T22:32:27.803Z,9.60
2019-05-26T22:34:58.006Z,9.60
2019-05-26T23:55:53.299Z,9.60
2019-05-26T23:58:23.433Z,9.60
